createdAt,value
2022-08-22T00:02:19.484Z,1.80
2022-08-22T00:05:56.056Z,1.30
2022-08-22T00:09:35.833Z,1.50
2022-08-22T00:13:12.045Z,1.40
2022-08-22T00:16:42.095Z,1.63
2022-08-22T00:20:19.937Z,1.63
2022-08-22T00:24:20.678Z,1.50
2022-08-22T00:27:54.242Z,1.75
2022-08-22T00:31:21.934Z,1.30
2022-08-22T00:34:56.855Z,1.30
2022-08-22T00:38:33.823Z,1.60
2022-08-22T00:42:08.039Z,1.65
2022-08-22T00:45:54.034Z,1.65
2022-08-22T00:50:02.142Z,1.40
2022-08-22T00:53:49.205Z,1.65
2022-08-22T00:57:35.230Z,1.08
2022-08-22T01:01:05.608Z,1.58
2022-08-22T01:04:46.342Z,1.60
2022-08-22T01:09:05.380Z,1.15
2022-08-22T01:12:45.744Z,1.40
2022-08-22T01:16:34.677Z,1.45
2022-08-22T01:20:33.912Z,1.65
2022-08-22T01:25:02.755Z,1.30
2022-08-22T01:29:02.231Z,1.35
2022-08-22T01:33:01.998Z,1.42
2022-08-22T01:36:57.595Z,1.25
2022-08-22T01:40:54.282Z,1.45
2022-08-22T01:44:39.478Z,1.30
2022-08-22T01:48:15.020Z,1.33
2022-08-22T01:51:43.124Z,1.58
2022-08-22T01:55:24.331Z,1.13
2022-08-22T01:58:57.108Z,1.17
2022-08-22T02:02:51.438Z,0.98
2022-08-22T02:06:18.349Z,1.50
2022-08-22T02:10:17.598Z,1.75
2022-08-22T02:14:00.801Z,1.58
2022-08-22T02:17:28.325Z,1.40
2022-08-22T02:21:14.394Z,1.50
2022-08-22T02:25:08.952Z,1.73
2022-08-22T02:28:56.961Z,1.70
2022-08-22T02:32:25.087Z,1.73
2022-08-22T02:35:57.546Z,1.52
2022-08-22T02:39:47.289Z,1.10
2022-08-22T02:43:23.941Z,1.50
2022-08-22T02:47:14.907Z,1.73
2022-08-22T02:50:53.709Z,1.60
2022-08-22T02:54:27.687Z,1.50
2022-08-22T02:58:00.858Z,1.60
2022-08-22T03:01:25.829Z,1.52
2022-08-22T03:04:54.287Z,1.48
2022-08-22T03:08:34.323Z,1.42
2022-08-22T03:12:21.107Z,1.65
2022-08-22T03:16:06.837Z,1.70
2022-08-22T03:19:42.353Z,1.75
2022-08-22T03:23:37.006Z,1.40
2022-08-22T03:27:11.690Z,1.75
2022-08-22T03:30:55.901Z,1.60
2022-08-22T03:34:27.022Z,1.90
2022-08-22T03:37:52.641Z,1.38
2022-08-22T03:41:53.640Z,1.60
2022-08-22T03:45:35.034Z,1.60
2022-08-22T03:49:30.502Z,1.80
2022-08-22T03:53:24.550Z,2.00
2022-08-22T03:57:33.583Z,1.77
2022-08-22T04:01:40.163Z,1.83
2022-08-22T04:05:26.021Z,1.23
2022-08-22T04:09:15.612Z,1.90
2022-08-22T04:13:02.711Z,1.45
2022-08-22T04:16:36.211Z,1.70
2022-08-22T04:20:25.029Z,1.52
2022-08-22T04:24:08.386Z,1.83
2022-08-22T04:27:30.573Z,1.75
2022-08-22T04:31:12.376Z,1.75
2022-08-22T04:34:44.644Z,1.80
2022-08-22T04:38:17.050Z,1.80
2022-08-22T04:41:48.846Z,1.90
2022-08-22T04:45:15.294Z,2.17
2022-08-22T04:49:03.024Z,2.20
2022-08-22T04:52:54.890Z,2.55
2022-08-22T04:56:49.832Z,2.75
2022-08-22T05:00:13.454Z,2.20
2022-08-22T05:03:44.741Z,2.95
2022-08-22T05:07:19.395Z,3.10
2022-08-22T05:10:46.261Z,2.38
2022-08-22T05:14:25.921Z,2.72
2022-08-22T05:17:50.047Z,2.65
2022-08-22T05:21:13.934Z,2.50
2022-08-22T05:24:43.411Z,2.15
2022-08-22T05:28:11.955Z,2.50
2022-08-22T05:31:57.071Z,2.22
2022-08-22T05:35:24.134Z,1.67
2022-08-22T05:38:54.458Z,1.70
2022-08-22T05:42:26.721Z,1.88
2022-08-22T05:45:49.115Z,1.75
2022-08-22T05:49:22.427Z,2.00
2022-08-22T05:53:03.269Z,1.75
2022-08-22T05:56:53.292Z,1.75
2022-08-22T06:00:20.381Z,1.92
2022-08-22T06:03:53.557Z,1.63
2022-08-22T06:07:21.045Z,2.10
2022-08-22T06:10:53.763Z,2.30
2022-08-22T06:14:29.065Z,1.80
2022-08-22T06:17:57.712Z,1.55
2022-08-22T06:21:33.688Z,2.40
2022-08-22T06:25:19.707Z,1.92
2022-08-22T06:28:55.138Z,1.90
2022-08-22T06:32:38.251Z,2.00
2022-08-22T06:36:31.954Z,1.88
2022-08-22T06:39:55.483Z,2.10
2022-08-22T06:43:18.052Z,1.52
2022-08-22T06:46:39.964Z,2.38
2022-08-22T06:50:13.937Z,1.70
2022-08-22T06:53:51.350Z,1.80
2022-08-22T06:57:48.941Z,1.70
2022-08-22T07:01:23.000Z,1.80
2022-08-22T07:04:47.529Z,1.80
2022-08-22T07:08:13.523Z,1.50
2022-08-22T07:11:39.459Z,1.65
2022-08-22T07:15:20.017Z,1.33
2022-08-22T07:18:50.192Z,1.30
2022-08-22T07:22:21.282Z,1.40
2022-08-22T07:26:12.559Z,1.42
2022-08-22T07:30:10.006Z,1.40
2022-08-22T07:33:55.404Z,1.63
2022-08-22T07:37:37.286Z,1.38
2022-08-22T07:41:20.267Z,1.73
2022-08-22T07:44:47.597Z,1.88
2022-08-22T07:48:30.171Z,1.13
2022-08-22T07:52:01.155Z,1.00
2022-08-22T07:55:25.630Z,1.20
2022-08-22T07:58:56.663Z,1.23
2022-08-22T08:02:19.989Z,1.23
2022-08-22T08:05:44.644Z,1.17
2022-08-22T08:09:12.727Z,1.40
2022-08-22T08:12:38.313Z,1.23
2022-08-22T08:16:00.521Z,1.27
2022-08-22T08:19:24.756Z,1.67
2022-08-22T08:22:48.497Z,1.65
2022-08-22T08:26:17.741Z,1.65
2022-08-22T08:29:43.523Z,1.40
2022-08-22T08:33:25.349Z,1.58
2022-08-22T08:36:54.292Z,1.30
2022-08-22T08:40:30.740Z,1.35
2022-08-22T08:44:18.437Z,1.42
2022-08-22T08:48:18.556Z,1.38
2022-08-22T08:52:00.573Z,1.35
2022-08-22T08:59:44.918Z,1.63
2022-08-22T09:03:29.823Z,1.70
2022-08-22T09:07:08.304Z,1.40
2022-08-22T09:10:32.959Z,2.03
2022-08-22T09:14:00.518Z,1.38
2022-08-22T09:17:37.602Z,1.38
2022-08-22T09:21:31.194Z,1.65
2022-08-22T09:25:38.577Z,1.75
2022-08-22T09:29:24.808Z,1.95
2022-08-22T09:32:58.611Z,1.65
2022-08-22T09:36:30.681Z,1.40
2022-08-22T09:40:17.458Z,1.60
2022-08-22T09:43:49.138Z,1.80
2022-08-22T09:47:17.030Z,1.77
2022-08-22T09:51:31.175Z,1.65
2022-08-22T09:55:35.641Z,1.60
2022-08-22T09:59:09.918Z,1.50
2022-08-22T10:02:43.622Z,1.70
2022-08-22T10:06:17.947Z,1.60
2022-08-22T10:10:04.360Z,1.50
2022-08-22T10:13:31.658Z,1.83
2022-08-22T10:17:11.728Z,1.52
2022-08-22T10:20:53.733Z,1.58
2022-08-22T10:24:44.062Z,1.70
2022-08-22T10:28:43.953Z,1.92
2022-08-22T10:32:44.339Z,1.40
2022-08-22T10:36:14.472Z,1.38
2022-08-22T10:39:47.397Z,1.23
2022-08-22T10:43:21.278Z,1.80
2022-08-22T10:47:11.834Z,1.65
2022-08-22T10:50:43.457Z,1.63
2022-08-22T10:54:20.096Z,1.75
2022-08-22T10:57:57.096Z,1.50
2022-08-22T11:01:37.460Z,1.80
2022-08-22T11:05:18.662Z,1.38
2022-08-22T11:09:18.666Z,1.50
2022-08-22T11:13:09.872Z,1.55
2022-08-22T11:16:55.137Z,1.50
2022-08-22T11:20:43.932Z,1.30
2022-08-22T11:24:36.777Z,1.45
2022-08-22T11:28:40.047Z,1.70
2022-08-22T11:32:07.684Z,1.45
2022-08-22T11:35:44.481Z,1.40
2022-08-22T11:39:41.585Z,1.80
2022-08-22T11:43:32.531Z,1.65
2022-08-22T11:46:57.206Z,1.55
2022-08-22T11:50:35.249Z,1.80
2022-08-22T11:54:13.421Z,1.83
2022-08-22T11:57:37.614Z,1.92
2022-08-22T12:01:17.311Z,1.60
2022-08-22T12:04:52.888Z,1.48
2022-08-22T12:08:49.293Z,1.88
2022-08-22T12:12:25.150Z,1.40
2022-08-22T12:16:06.341Z,1.40
2022-08-22T12:20:12.776Z,1.70
2022-08-22T12:23:59.290Z,1.58
2022-08-22T12:27:55.125Z,1.38
2022-08-22T12:31:38.575Z,1.83
2022-08-22T12:35:29.775Z,1.67
2022-08-22T12:39:04.060Z,1.63
2022-08-22T12:42:54.498Z,1.60
2022-08-22T12:46:23.624Z,1.33
2022-08-22T12:49:52.883Z,1.50
2022-08-22T12:53:33.232Z,1.50
2022-08-22T12:57:24.509Z,1.23
2022-08-22T13:00:49.024Z,1.63
2022-08-22T13:04:33.402Z,1.77
2022-08-22T13:08:03.786Z,1.42
2022-08-22T13:11:27.424Z,1.73
2022-08-22T13:14:56.191Z,1.30
2022-08-22T13:18:30.008Z,1.27
2022-08-22T13:22:03.612Z,1.58
2022-08-22T13:25:29.151Z,1.60
2022-08-22T13:29:15.536Z,1.40
2022-08-22T13:32:46.389Z,0.95
2022-08-22T13:36:18.433Z,1.30
2022-08-22T13:39:43.969Z,1.80
2022-08-22T13:43:11.254Z,1.55
2022-08-22T13:46:35.591Z,1.10
2022-08-22T13:50:14.560Z,1.33
2022-08-22T13:53:58.018Z,1.48
2022-08-22T13:57:34.580Z,1.38
2022-08-22T14:01:21.753Z,1.42
2022-08-22T14:04:50.525Z,1.20
2022-08-22T14:08:23.081Z,1.52
2022-08-22T14:11:53.836Z,1.48
2022-08-22T14:15:22.019Z,1.30
2022-08-22T14:18:51.256Z,1.23
2022-08-22T14:22:20.685Z,2.03
2022-08-22T14:25:54.511Z,1.35
2022-08-22T14:29:20.228Z,1.48
2022-08-22T14:33:05.852Z,1.30
2022-08-22T14:36:58.967Z,1.10
2022-08-22T14:40:32.704Z,1.00
2022-08-22T14:44:03.759Z,0.90
2022-08-22T14:48:30.097Z,0.90
2022-08-22T14:51:30.884Z,1.38
2022-08-22T14:55:13.313Z,1.73
2022-08-22T14:58:45.485Z,1.33
2022-08-22T15:02:22.833Z,1.25
2022-08-22T15:05:50.826Z,1.20
2022-08-22T15:09:42.585Z,1.52
2022-08-22T15:13:08.124Z,1.40
2022-08-22T15:16:40.385Z,1.40
2022-08-22T15:20:28.585Z,1.48
2022-08-22T15:23:53.920Z,1.70
2022-08-22T15:27:21.289Z,1.30
2022-08-22T15:31:03.962Z,1.13
2022-08-22T15:34:44.213Z,1.10
2022-08-22T15:38:27.599Z,1.48
2022-08-22T15:41:50.824Z,1.40
2022-08-22T15:45:33.873Z,1.05
2022-08-22T15:49:00.928Z,1.10
2022-08-22T15:52:31.757Z,1.20
2022-08-22T15:56:11.540Z,1.35
2022-08-22T15:59:53.518Z,0.90
2022-08-22T16:03:32.781Z,1.05
2022-08-22T16:07:00.274Z,1.05
2022-08-22T16:10:22.603Z,1.10
2022-08-22T16:13:45.200Z,1.20
2022-08-22T16:17:30.156Z,1.13
2022-08-22T16:20:55.076Z,0.90
2022-08-22T16:24:16.728Z,1.20
2022-08-22T16:27:51.992Z,1.15
2022-08-22T16:31:36.961Z,1.60
2022-08-22T16:34:58.682Z,1.25
2022-08-22T16:38:36.667Z,1.02
2022-08-22T16:42:18.245Z,1.30
2022-08-22T16:45:45.405Z,1.50
2022-08-22T16:49:10.335Z,1.50
2022-08-22T16:52:32.152Z,1.33
2022-08-22T16:55:58.318Z,1.60
2022-08-22T16:59:54.539Z,1.60
2022-08-22T17:03:35.009Z,1.60
2022-08-22T17:07:30.314Z,1.30
2022-08-22T17:11:19.967Z,1.40
2022-08-22T17:15:03.852Z,1.20
2022-08-22T17:18:46.151Z,1.40
2022-08-22T17:22:29.057Z,1.25
2022-08-22T17:26:12.057Z,1.50
2022-08-22T17:29:55.246Z,1.23
2022-08-22T17:33:40.588Z,1.08
2022-08-22T17:37:16.668Z,1.48
2022-08-22T17:41:12.002Z,1.30
2022-08-22T17:44:42.974Z,1.65
2022-08-22T17:48:26.536Z,1.58
2022-08-22T17:52:37.179Z,1.95
2022-08-22T17:56:11.739Z,1.35
2022-08-22T17:59:49.875Z,1.80
2022-08-22T18:03:31.567Z,1.45
2022-08-22T18:07:13.760Z,1.55
2022-08-22T18:10:50.185Z,1.40
2022-08-22T18:14:23.548Z,1.08
2022-08-22T18:17:56.641Z,1.35
2022-08-22T18:21:45.502Z,0.95
2022-08-22T18:25:19.558Z,1.60
2022-08-22T18:28:53.660Z,1.40
2022-08-22T18:32:28.478Z,1.10
2022-08-22T18:35:59.185Z,1.40
2022-08-22T18:39:29.970Z,1.55
2022-08-22T18:42:54.688Z,1.20
2022-08-22T18:46:42.077Z,1.30
2022-08-22T18:50:42.712Z,1.13
2022-08-22T18:54:04.415Z,1.15
2022-08-22T18:58:07.440Z,1.35
2022-08-22T19:01:44.899Z,0.98
2022-08-22T19:05:44.274Z,1.00
2022-08-22T19:09:27.446Z,1.10
2022-08-22T19:13:07.805Z,1.60
2022-08-22T19:17:01.099Z,1.60
2022-08-22T19:20:51.147Z,1.38
2022-08-22T19:24:29.606Z,1.83
2022-08-22T19:28:06.337Z,1.48
2022-08-22T19:31:42.384Z,1.30
2022-08-22T19:35:40.026Z,1.27
2022-08-22T19:39:10.221Z,1.48
2022-08-22T19:42:35.143Z,1.30
2022-08-22T19:45:58.825Z,1.35
2022-08-22T19:49:29.390Z,1.23
2022-08-22T19:52:57.846Z,1.45
2022-08-22T19:56:28.245Z,1.30
2022-08-22T20:00:12.073Z,1.50
2022-08-22T20:03:53.922Z,1.17
2022-08-22T20:07:47.154Z,1.40
2022-08-22T20:11:20.278Z,1.50
2022-08-22T20:14:44.569Z,1.60
2022-08-22T20:18:47.180Z,1.50
2022-08-22T20:22:00.358Z,1.83
2022-08-22T20:25:44.547Z,1.27
2022-08-22T20:29:08.135Z,1.75
2022-08-22T20:32:32.457Z,1.55
2022-08-22T20:35:59.150Z,1.50
2022-08-22T20:39:25.988Z,1.50
2022-08-22T20:42:51.434Z,1.25
2022-08-22T20:46:43.790Z,1.48
2022-08-22T20:50:11.263Z,1.75
2022-08-22T20:53:34.218Z,1.45
2022-08-22T20:57:02.090Z,1.48
2022-08-22T21:00:42.047Z,1.30
2022-08-22T21:04:04.758Z,1.42
2022-08-22T21:07:29.157Z,1.45
2022-08-22T21:11:18.917Z,1.60
2022-08-22T21:14:46.097Z,1.27
2022-08-22T21:18:09.840Z,1.50
2022-08-22T21:21:34.369Z,2.13
2022-08-22T21:24:58.212Z,2.33
2022-08-22T21:28:50.983Z,2.10
2022-08-22T21:32:25.101Z,1.73
2022-08-22T21:35:55.955Z,2.25
2022-08-22T21:39:21.863Z,1.73
2022-08-22T21:42:57.441Z,1.60
2022-08-22T21:46:28.505Z,1.60
2022-08-22T21:49:59.138Z,1.63
2022-08-22T21:53:28.195Z,1.80
2022-08-22T21:56:50.997Z,1.48
2022-08-22T22:00:49.471Z,1.90
2022-08-22T22:04:11.459Z,1.83
2022-08-22T22:07:35.964Z,1.65
2022-08-22T22:11:00.927Z,1.60
2022-08-22T22:14:22.690Z,1.70
2022-08-22T22:17:44.617Z,1.40
2022-08-22T22:21:06.689Z,1.42
2022-08-22T22:24:28.413Z,1.58
2022-08-22T22:27:50.536Z,1.30
2022-08-22T22:31:12.277Z,1.35
2022-08-22T22:34:34.141Z,1.25
2022-08-22T22:37:56.069Z,1.58
2022-08-22T22:41:19.081Z,2.13
2022-08-22T22:44:40.886Z,1.63
2022-08-22T22:48:09.221Z,1.67
2022-08-22T22:51:30.963Z,2.40
2022-08-22T22:54:53.089Z,2.00
2022-08-22T22:58:15.763Z,1.65
2022-08-22T23:02:00.628Z,1.90
2022-08-22T23:05:23.008Z,1.83
2022-08-22T23:08:44.936Z,1.83
2022-08-22T23:12:07.748Z,1.90
2022-08-22T23:15:29.501Z,1.63
2022-08-22T23:18:51.863Z,1.40
2022-08-22T23:22:14.205Z,1.50
2022-08-22T23:25:35.977Z,1.65
2022-08-22T23:28:58.658Z,1.58
2022-08-22T23:32:20.359Z,2.50
2022-08-22T23:35:42.097Z,1.90
2022-08-22T23:39:05.369Z,2.67
2022-08-22T23:42:29.015Z,2.33
2022-08-22T23:45:50.773Z,1.85
2022-08-22T23:49:14.277Z,2.00
2022-08-22T23:52:36.074Z,1.95
2022-08-22T23:56:07.965Z,2.10
2022-08-22T23:59:34.076Z,2.05
